createdAt,value
2022-11-05T00:00:19.877Z,11.43
2022-11-05T00:05:42.605Z,10.70
2022-11-05T00:11:04.558Z,11.00
2022-11-05T00:16:26.365Z,11.15
2022-11-05T00:21:48.162Z,10.40
2022-11-05T00:27:10.407Z,11.20
2022-11-05T00:32:32.569Z,11.20
2022-11-05T00:37:54.402Z,10.30
2022-11-05T00:43:16.490Z,11.73
2022-11-05T00:48:38.341Z,10.82
2022-11-05T00:54:00.159Z,11.00
2022-11-05T00:59:21.932Z,9.77
2022-11-05T01:04:43.962Z,10.40
2022-11-05T01:10:06.315Z,12.05
2022-11-05T01:15:28.108Z,10.13
2022-11-05T01:20:50.569Z,11.20
2022-11-05T01:26:12.399Z,9.85
2022-11-05T01:31:34.193Z,10.55
2022-11-05T01:36:56.004Z,10.63
2022-11-05T01:42:24.510Z,9.93
2022-11-05T01:48:12.867Z,10.85
2022-11-05T01:53:41.845Z,10.75
2022-11-05T01:59:10.249Z,11.23
2022-11-05T02:04:40.054Z,10.02
2022-11-05T02:10:08.031Z,11.68
2022-11-05T02:16:02.146Z,11.38
2022-11-05T02:21:29.943Z,10.85
2022-11-05T02:26:54.476Z,10.30
2022-11-05T02:32:31.120Z,10.90
2022-11-05T02:43:22.408Z,11.13
2022-11-05T02:49:05.547Z,11.30
2022-11-05T02:54:32.026Z,10.48
2022-11-05T03:00:07.648Z,11.27
2022-11-05T03:05:49.575Z,11.60
2022-11-05T03:11:18.034Z,12.48
2022-11-05T03:16:43.021Z,11.57
2022-11-05T03:22:29.173Z,11.30
2022-11-05T03:27:57.552Z,10.90
2022-11-05T03:33:25.363Z,12.70
2022-11-05T03:38:51.737Z,12.10
2022-11-05T03:44:17.356Z,13.25
2022-11-05T03:49:43.867Z,12.10
2022-11-05T03:55:06.093Z,13.00
2022-11-05T04:00:27.989Z,12.68
2022-11-05T04:05:50.635Z,12.13
2022-11-05T04:11:12.479Z,11.80
2022-11-05T04:16:34.272Z,13.13
2022-11-05T04:21:56.094Z,12.88
2022-11-05T04:27:17.963Z,12.32
2022-11-05T04:32:39.840Z,13.02
2022-11-05T04:38:01.951Z,12.60
2022-11-05T04:43:24.028Z,13.60
2022-11-05T04:48:46.003Z,14.13
2022-11-05T04:54:07.778Z,14.18
2022-11-05T04:59:29.625Z,14.48
2022-11-05T05:04:51.427Z,13.63
2022-11-05T05:10:13.270Z,14.13
2022-11-05T05:15:35.082Z,14.20
2022-11-05T05:20:58.039Z,14.43
2022-11-05T05:26:19.867Z,13.57
2022-11-05T05:31:42.458Z,14.40
2022-11-05T05:37:04.274Z,14.95
2022-11-05T05:42:26.106Z,15.90
2022-11-05T05:47:47.945Z,15.68
2022-11-05T05:53:10.089Z,15.60
2022-11-05T05:58:38.702Z,16.33
2022-11-05T06:04:00.571Z,15.10
2022-11-05T06:09:22.388Z,15.43
2022-11-05T06:14:44.231Z,15.88
2022-11-05T06:20:07.736Z,15.20
2022-11-05T06:25:29.790Z,14.95
2022-11-05T06:30:51.615Z,16.48
2022-11-05T06:36:15.532Z,15.25
2022-11-05T06:41:56.939Z,14.40
2022-11-05T06:47:19.684Z,14.85
2022-11-05T06:52:41.548Z,16.27
2022-11-05T06:58:03.891Z,15.35
2022-11-05T07:03:25.737Z,15.35
2022-11-05T07:08:47.535Z,15.30
2022-11-05T07:14:09.400Z,16.10
2022-11-05T07:19:31.287Z,15.38
2022-11-05T07:24:53.174Z,14.48
2022-11-05T07:30:15.150Z,14.60
2022-11-05T07:35:37.006Z,15.88
2022-11-05T07:41:01.828Z,16.02
2022-11-05T07:46:23.663Z,16.73
2022-11-05T07:51:45.473Z,31.77
2022-11-05T07:57:07.292Z,16.23
2022-11-05T08:02:29.231Z,16.58
2022-11-05T08:07:52.954Z,15.13
2022-11-05T08:13:15.765Z,16.50
2022-11-05T08:18:38.068Z,16.70
2022-11-05T08:23:59.909Z,16.67
2022-11-05T08:29:21.867Z,15.90
2022-11-05T08:34:43.805Z,15.93
2022-11-05T08:40:06.252Z,17.70
2022-11-05T08:45:28.768Z,17.75
2022-11-05T08:50:50.611Z,17.55
2022-11-05T08:56:12.486Z,19.05
2022-11-05T09:01:34.421Z,17.65
2022-11-05T09:06:56.329Z,16.92
2022-11-05T09:12:18.139Z,17.00
2022-11-05T09:17:40.088Z,18.08
2022-11-05T09:23:02.344Z,18.45
2022-11-05T09:28:24.168Z,17.60
2022-11-05T09:33:46.050Z,17.85
2022-11-05T09:39:08.047Z,18.27
2022-11-05T09:44:42.677Z,19.50
2022-11-05T09:50:12.940Z,19.20
2022-11-05T09:55:41.170Z,19.52
2022-11-05T10:01:06.789Z,19.55
2022-11-05T10:06:29.219Z,19.65
2022-11-05T10:12:21.176Z,20.80
2022-11-05T10:17:48.678Z,20.42
2022-11-05T10:23:14.147Z,20.83
2022-11-05T10:28:36.707Z,22.02
2022-11-05T10:34:02.351Z,22.00
2022-11-05T10:39:25.518Z,20.30
2022-11-05T10:44:52.826Z,21.08
2022-11-05T10:50:21.628Z,22.48
2022-11-05T10:55:48.708Z,21.63
2022-11-05T11:01:12.270Z,21.65
2022-11-05T11:06:36.325Z,20.35
2022-11-05T11:12:02.473Z,23.17
2022-11-05T11:23:11.411Z,22.33
2022-11-05T11:28:40.660Z,23.58
2022-11-05T11:34:06.107Z,23.50
2022-11-05T11:39:30.554Z,23.83
2022-11-05T11:44:53.051Z,24.38
2022-11-05T11:50:37.325Z,23.33
2022-11-05T11:56:02.200Z,25.45
2022-11-05T12:01:42.271Z,24.95
2022-11-05T12:07:09.931Z,24.73
2022-11-05T12:12:37.663Z,24.70
2022-11-05T12:18:05.485Z,27.10
2022-11-05T12:23:51.117Z,26.83
2022-11-05T12:29:40.308Z,25.73
2022-11-05T12:35:30.007Z,27.23
2022-11-05T12:40:57.788Z,25.50
2022-11-05T12:46:29.090Z,27.42
2022-11-05T12:52:00.009Z,28.92
2022-11-05T12:57:23.047Z,27.75
2022-11-05T13:03:03.602Z,29.42
2022-11-05T13:08:36.468Z,27.98
2022-11-05T13:14:13.272Z,28.92
2022-11-05T13:19:45.005Z,30.70
2022-11-05T13:25:17.037Z,27.83
2022-11-05T13:30:44.076Z,27.80
2022-11-05T13:36:12.194Z,28.02
2022-11-05T13:41:53.357Z,25.85
2022-11-05T13:47:28.003Z,26.25
2022-11-05T13:53:02.706Z,26.13
2022-11-05T13:58:30.335Z,26.42
2022-11-05T14:03:55.561Z,25.70
2022-11-05T14:09:23.931Z,28.85
2022-11-05T14:14:55.864Z,27.58
2022-11-05T14:20:32.626Z,27.58
2022-11-05T14:26:21.901Z,25.58
2022-11-05T14:32:07.813Z,27.00
2022-11-05T14:37:40.109Z,29.77
2022-11-05T14:43:07.549Z,28.33
2022-11-05T14:48:38.123Z,28.75
2022-11-05T14:54:05.169Z,27.67
2022-11-05T14:59:26.932Z,28.00
2022-11-05T15:04:48.933Z,26.13
2022-11-05T15:10:17.179Z,28.92
2022-11-05T15:15:43.648Z,27.48
2022-11-05T15:21:10.551Z,24.95
2022-11-05T15:26:47.518Z,27.35
2022-11-05T15:32:30.768Z,24.58
2022-11-05T15:38:02.260Z,23.67
2022-11-05T15:43:24.624Z,22.25
2022-11-05T15:49:14.117Z,18.98
2022-11-05T15:54:36.322Z,19.17
2022-11-05T15:59:58.487Z,19.00
2022-11-05T16:05:21.160Z,19.88
2022-11-05T16:10:48.460Z,21.88
2022-11-05T16:16:16.106Z,20.88
2022-11-05T16:21:53.866Z,21.67
2022-11-05T16:27:21.241Z,23.15
2022-11-05T16:32:43.134Z,22.05
2022-11-05T16:38:05.105Z,20.92
2022-11-05T16:43:27.338Z,21.42
2022-11-05T16:48:49.521Z,24.00
2022-11-05T16:54:11.453Z,22.50
2022-11-05T16:59:34.292Z,21.98
2022-11-05T17:04:56.178Z,23.98
2022-11-05T17:10:19.397Z,25.35
2022-11-05T17:15:42.920Z,26.73
2022-11-05T17:21:05.266Z,27.70
2022-11-05T17:26:27.136Z,26.83
2022-11-05T17:31:49.013Z,25.63
2022-11-05T17:37:10.856Z,27.25
2022-11-05T17:42:33.134Z,27.13
2022-11-05T17:47:55.135Z,25.52
2022-11-05T17:53:19.063Z,26.90
2022-11-05T17:58:41.110Z,25.63
2022-11-05T18:04:08.622Z,24.83
2022-11-05T18:09:31.331Z,27.75
2022-11-05T18:14:53.172Z,26.83
2022-11-05T18:20:19.233Z,26.42
2022-11-05T18:25:42.298Z,27.15
2022-11-05T18:31:08.214Z,28.15
2022-11-05T18:36:32.218Z,28.43
2022-11-05T18:41:54.044Z,28.60
2022-11-05T18:47:16.083Z,26.33
2022-11-05T18:52:37.922Z,26.20
2022-11-05T18:57:59.772Z,26.02
2022-11-05T19:03:21.596Z,26.83
2022-11-05T19:08:44.458Z,22.10
2022-11-05T19:14:07.224Z,20.63
2022-11-05T19:19:29.390Z,20.50
2022-11-05T19:24:51.439Z,20.33
2022-11-05T19:30:13.435Z,15.65
2022-11-05T19:35:41.323Z,12.63
2022-11-05T19:41:08.901Z,12.88
2022-11-05T19:46:31.502Z,12.05
2022-11-05T19:51:53.517Z,12.73
2022-11-05T19:57:15.319Z,10.90
2022-11-05T20:02:37.406Z,12.57
2022-11-05T20:07:59.333Z,10.73
2022-11-05T20:13:21.413Z,10.07
2022-11-05T20:18:43.245Z,10.25
2022-11-05T20:24:05.650Z,15.02
2022-11-05T20:29:33.892Z,10.38
2022-11-05T20:34:57.130Z,10.15
2022-11-05T20:40:19.077Z,10.05
2022-11-05T20:45:40.906Z,11.50
2022-11-05T20:51:08.301Z,12.32
2022-11-05T20:56:32.266Z,12.05
2022-11-05T21:01:54.254Z,11.73
2022-11-05T21:07:16.191Z,12.75
2022-11-05T21:12:38.067Z,12.07
2022-11-05T21:18:00.459Z,12.93
2022-11-05T21:23:22.967Z,12.40
2022-11-05T21:28:44.825Z,13.25
2022-11-05T21:34:06.653Z,13.55
2022-11-05T21:39:28.484Z,13.52
2022-11-05T21:44:50.311Z,14.13
2022-11-05T21:50:12.186Z,14.10
2022-11-05T21:55:34.133Z,14.73
2022-11-05T22:00:55.987Z,13.18
2022-11-05T22:06:17.791Z,15.05
2022-11-05T22:11:39.634Z,14.90
2022-11-05T22:17:01.684Z,14.25
2022-11-05T22:22:23.529Z,16.27
2022-11-05T22:27:45.717Z,15.93
2022-11-05T22:33:07.675Z,14.95
2022-11-05T22:38:30.711Z,16.05
2022-11-05T22:43:52.594Z,14.38
2022-11-05T22:49:14.911Z,14.02
2022-11-05T22:54:39.423Z,13.75
2022-11-05T23:00:01.641Z,13.45
2022-11-05T23:05:23.638Z,13.18
2022-11-05T23:10:45.463Z,12.07
2022-11-05T23:16:07.597Z,10.45
2022-11-05T23:21:29.406Z,11.43
2022-11-05T23:26:51.276Z,11.48
2022-11-05T23:32:13.151Z,10.43
2022-11-05T23:37:34.981Z,10.43
2022-11-05T23:42:57.557Z,10.95
2022-11-05T23:48:37.178Z,11.35
2022-11-05T23:53:59.017Z,12.40
2022-11-05T23:59:20.901Z,12.13
